Time;durP1;ratioP1;P1;durP2;ratioP2;P2;SDS_P1;SDS_P2;PMS_P1;PMS_P2;Temp;Humidity;BMP_temperature;BMP_pressure;BME280_temperature;BME280_humidity;BME280_pressure;Samples;Min_cycle;Max_cycle;Signal;HPM_P1;HPM_P2
2023/03/17 00:01:10;;;;;;;9.73;4.32;;;11.50;99.90;;;;;;5041805;28;20477;-70
2023/03/17 00:03:39;;;;;;;14.55;3.97;;;11.50;99.90;;;;;;5041419;28;20014;-70
2023/03/17 00:06:13;;;;;;;11.98;4.25;;;11.50;99.90;;;;;;5041135;28;20408;-69
2023/03/17 00:08:39;;;;;;;12.40;4.18;;;11.60;99.90;;;;;;5040496;28;20028;-70
2023/03/17 00:11:11;;;;;;;20.90;5.30;;;11.60;99.90;;;;;;5032715;28;20489;-69
2023/03/17 00:13:37;;;;;;;15.45;3.70;;;11.60;99.90;;;;;;5039528;28;20021;-69
2023/03/17 00:16:06;;;;;;;13.57;3.78;;;11.50;99.90;;;;;;5042325;28;20570;-69
2023/03/17 00:18:34;;;;;;;7.35;3.85;;;11.50;99.90;;;;;;5039658;28;20105;-69
2023/03/17 00:21:00;;;;;;;12.40;3.63;;;11.60;99.90;;;;;;5043964;28;20139;-69
2023/03/17 00:23:25;;;;;;;9.15;3.38;;;11.60;99.90;;;;;;5039054;28;20041;-69
2023/03/17 00:25:53;;;;;;;14.10;4.00;;;11.60;99.90;;;;;;5044093;28;20079;-70
2023/03/17 00:28:20;;;;;;;15.38;4.60;;;11.60;99.90;;;;;;5039195;28;20521;-69
2023/03/17 00:30:47;;;;;;;12.20;3.72;;;11.50;99.90;;;;;;5044016;28;20443;-69
2023/03/17 00:33:15;;;;;;;16.30;4.22;;;11.50;99.90;;;;;;5040474;28;20022;-69
2023/03/17 00:35:42;;;;;;;16.10;3.78;;;11.50;99.90;;;;;;5043640;28;20432;-69
2023/03/17 00:38:23;;;;;;;12.27;4.35;;;11.50;99.90;;;;;;5038809;28;20382;-69
2023/03/17 00:40:49;;;;;;;;;;;11.40;99.90;;;;;;5039358;28;20032;-69
2023/03/17 00:43:16;;;;;;;18.02;4.20;;;11.50;99.90;;;;;;5040881;28;20295;-69
2023/03/17 00:45:43;;;;;;;13.23;4.30;;;11.50;99.90;;;;;;5042109;28;20021;-69
2023/03/17 00:48:35;;;;;;;18.80;4.45;;;11.50;99.90;;;;;;5041149;28;20036;-70
2023/03/17 00:51:01;;;;;;;15.73;4.55;;;11.50;99.90;;;;;;5036693;28;20064;-69
2023/03/17 00:53:27;;;;;;;13.43;4.13;;;11.50;99.90;;;;;;5042828;28;20108;-69
2023/03/17 00:55:53;;;;;;;13.50;4.78;;;11.50;99.90;;;;;;5039247;28;20037;-69
2023/03/17 00:58:31;;;;;;;14.60;4.28;;;11.50;99.90;;;;;;5044251;28;20013;-69
2023/03/17 01:00:58;;;;;;;9.68;3.92;;;11.40;99.90;;;;;;5041347;28;20017;-69
2023/03/17 01:03:24;;;;;;;16.25;4.25;;;11.40;99.90;;;;;;5043444;28;20032;-70
2023/03/17 01:05:53;;;;;;;12.02;3.83;;;11.40;99.90;;;;;;5040314;28;20541;-69
2023/03/17 01:08:20;;;;;;;13.88;5.25;;;11.30;99.90;;;;;;5042902;28;20440;-69
2023/03/17 01:10:46;;;;;;;19.58;4.60;;;11.40;99.90;;;;;;5044256;28;20055;-69
2023/03/17 01:13:13;;;;;;;13.77;3.88;;;11.40;99.90;;;;;;5045682;28;20025;-69
2023/03/17 01:15:44;;;;;;;11.82;3.35;;;11.40;99.90;;;;;;5042595;28;20021;-69
2023/03/17 01:18:12;;;;;;;12.45;4.50;;;11.40;99.90;;;;;;5043219;28;20489;-69
2023/03/17 01:20:38;;;;;;;20.17;4.80;;;11.40;99.90;;;;;;5044897;28;20018;-69
2023/03/17 01:23:04;;;;;;;15.40;4.07;;;11.40;99.90;;;;;;5042375;28;20099;-70
2023/03/17 01:25:30;;;;;;;16.70;4.07;;;11.40;99.90;;;;;;5043989;28;20017;-69
2023/03/17 01:27:58;;;;;;;9.98;4.15;;;11.40;99.90;;;;;;5042473;28;20029;-69
2023/03/17 01:30:29;;;;;;;11.50;4.70;;;11.40;99.90;;;;;;5045019;28;20117;-69
2023/03/17 01:32:57;;;;;;;18.55;4.03;;;11.40;99.90;;;;;;5043110;28;20057;-69
2023/03/17 01:35:24;;;;;;;14.85;4.25;;;11.40;99.90;;;;;;5045826;28;20045;-70
2023/03/17 01:37:50;;;;;;;13.48;4.18;;;11.40;99.90;;;;;;5041425;28;20120;-69
2023/03/17 01:40:21;;;;;;;11.77;3.50;;;11.40;99.90;;;;;;5045904;28;20021;-70
2023/03/17 01:43:09;;;;;;;13.52;3.78;;;11.40;99.90;;;;;;5042890;28;20029;-69
2023/03/17 01:46:24;;;;;;;13.13;4.07;;;11.50;99.90;;;;;;5037806;28;20038;-70
2023/03/17 01:49:18;;;;;;;17.15;4.15;;;11.50;99.90;;;;;;5037695;28;20037;-69
2023/03/17 01:52:10;;;;;;;14.82;4.15;;;11.40;99.90;;;;;;5046358;28;20045;-69
2023/03/17 01:54:49;;;;;;;15.55;4.22;;;11.40;99.90;;;;;;5044623;28;20060;-70
2023/03/17 01:57:22;;;;;;;7.20;3.83;;;11.50;99.90;;;;;;5043089;28;20028;-69
2023/03/17 02:00:08;;;;;;;13.30;4.00;;;11.50;99.90;;;;;;5045445;28;20658;-70
2023/03/17 02:02:37;;;;;;;12.48;3.42;;;11.50;99.90;;;;;;5043904;28;20543;-70
2023/03/17 02:05:04;;;;;;;14.43;3.58;;;11.50;99.90;;;;;;5045398;28;20063;-69
2023/03/17 02:07:31;;;;;;;15.38;3.78;;;11.60;99.90;;;;;;5050912;28;20017;-70
2023/03/17 02:09:57;;;;;;;12.90;4.15;;;11.60;99.90;;;;;;5057288;28;20595;-69
2023/03/17 02:12:27;;;;;;;14.63;3.78;;;11.60;99.90;;;;;;5053823;28;20440;-69
2023/03/17 02:14:54;;;;;;;22.35;4.22;;;11.60;99.90;;;;;;5048587;28;20053;-69
2023/03/17 02:17:21;;;;;;;12.95;4.22;;;11.60;99.90;;;;;;5039574;28;20029;-69
2023/03/17 02:19:47;;;;;;;16.67;3.95;;;11.60;99.90;;;;;;5044584;28;20440;-70
2023/03/17 02:22:14;;;;;;;19.58;5.43;;;11.60;99.90;;;;;;5059312;28;20054;-69
2023/03/17 02:24:44;;;;;;;15.15;4.50;;;11.60;99.90;;;;;;5051874;28;20067;-69
2023/03/17 02:27:21;;;;;;;12.80;3.80;;;11.60;99.90;;;;;;5055633;28;20025;-70
2023/03/17 02:29:48;;;;;;;15.18;4.15;;;11.60;99.90;;;;;;5051672;28;20562;-70
2023/03/17 02:32:16;;;;;;;10.23;3.35;;;11.60;99.90;;;;;;5053329;28;20029;-69
2023/03/17 02:34:43;;;;;;;9.57;3.50;;;11.60;99.90;;;;;;5053622;28;20108;-70
2023/03/17 02:37:09;;;;;;;12.20;3.85;;;11.60;99.90;;;;;;5051793;28;20057;-69
2023/03/17 02:39:35;;;;;;;14.18;3.42;;;11.60;99.90;;;;;;5053449;28;20013;-69
2023/03/17 02:42:01;;;;;;;14.95;4.95;;;11.60;99.90;;;;;;5047045;28;20024;-69
2023/03/17 02:44:26;;;;;;;14.32;3.88;;;11.50;99.90;;;;;;5041148;28;20014;-69
2023/03/17 02:46:52;;;;;;;9.30;3.40;;;11.60;99.90;;;;;;5044230;28;20029;-69
2023/03/17 02:49:19;;;;;;;12.63;4.32;;;11.60;99.90;;;;;;5042346;28;20076;-70
2023/03/17 02:51:45;;;;;;;14.90;3.58;;;11.60;99.90;;;;;;5045246;28;20045;-70
2023/03/17 02:54:10;;;;;;;12.65;3.78;;;11.60;99.90;;;;;;5041973;28;20044;-69
2023/03/17 02:56:36;;;;;;;17.70;4.30;;;11.60;99.90;;;;;;5045867;28;20029;-70
2023/03/17 02:59:03;;;;;;;13.63;3.70;;;11.60;99.90;;;;;;5042244;28;20032;-70
2023/03/17 03:01:29;;;;;;;15.85;5.03;;;11.60;99.90;;;;;;5045744;28;20017;-69
2023/03/17 03:03:56;;;;;;;13.02;3.60;;;11.60;99.90;;;;;;5042624;28;20017;-70
2023/03/17 03:06:22;;;;;;;14.93;4.18;;;11.60;99.90;;;;;;5045067;28;20082;-69
2023/03/17 03:08:49;;;;;;;19.70;3.60;;;11.60;99.90;;;;;;5042217;28;20026;-69
2023/03/17 03:11:15;;;;;;;15.90;4.25;;;11.60;99.90;;;;;;5046658;28;20031;-69
2023/03/17 03:13:41;;;;;;;16.42;4.30;;;11.60;99.90;;;;;;5042678;28;20025;-70
2023/03/17 03:16:07;;;;;;;13.02;3.97;;;11.60;99.90;;;;;;5045422;28;20094;-70
2023/03/17 03:18:33;;;;;;;8.85;3.35;;;11.60;99.90;;;;;;5041492;28;20025;-70
2023/03/17 03:20:59;;;;;;;9.88;3.67;;;11.60;99.90;;;;;;5042590;28;20013;-69
2023/03/17 03:23:26;;;;;;;11.10;3.38;;;11.60;99.90;;;;;;5041213;28;20026;-70
2023/03/17 03:25:52;;;;;;;12.90;4.20;;;11.60;99.90;;;;;;5044523;28;20028;-70
2023/03/17 03:28:18;;;;;;;19.70;5.05;;;11.60;99.90;;;;;;5040333;28;20030;-70
2023/03/17 03:30:44;;;;;;;16.48;4.32;;;11.60;99.90;;;;;;5043797;28;20021;-70
2023/03/17 03:33:11;;;;;;;17.63;3.53;;;11.60;99.90;;;;;;5040198;28;20029;-70
2023/03/17 03:35:38;;;;;;;11.15;3.47;;;11.60;99.90;;;;;;5044970;28;20025;-70
2023/03/17 03:38:04;;;;;;;13.93;5.50;;;11.60;99.90;;;;;;5041211;28;20018;-70
2023/03/17 03:40:29;;;;;;;11.75;4.35;;;11.60;99.90;;;;;;5043646;28;20105;-70
2023/03/17 03:42:55;;;;;;;14.73;3.67;;;11.60;99.90;;;;;;5041151;28;20025;-69
2023/03/17 03:45:21;;;;;;;15.20;3.83;;;11.60;99.90;;;;;;5043414;28;20025;-70
2023/03/17 03:47:47;;;;;;;11.70;4.30;;;11.60;99.90;;;;;;5041000;28;20021;-70
2023/03/17 03:50:13;;;;;;;17.38;4.53;;;11.60;99.90;;;;;;5043742;28;20358;-70
2023/03/17 03:52:39;;;;;;;13.52;3.63;;;11.60;99.90;;;;;;5039227;28;20140;-69
2023/03/17 03:55:06;;;;;;;13.23;3.50;;;11.60;99.90;;;;;;5042994;28;20057;-69
2023/03/17 03:57:31;;;;;;;16.73;3.58;;;11.60;99.90;;;;;;5040999;28;20018;-70
2023/03/17 03:59:57;;;;;;;17.23;4.07;;;11.60;99.90;;;;;;5043560;28;20492;-69
2023/03/17 04:02:23;;;;;;;12.70;3.20;;;11.70;99.90;;;;;;5041128;28;20092;-69
2023/03/17 04:04:48;;;;;;;17.58;4.55;;;11.70;99.90;;;;;;5042828;28;20032;-69
2023/03/17 04:07:14;;;;;;;20.13;4.18;;;11.70;99.90;;;;;;5040466;28;20029;-70
2023/03/17 04:09:40;;;;;;;14.45;3.60;;;11.70;99.90;;;;;;5043405;28;20100;-70
2023/03/17 04:12:07;;;;;;;8.85;3.60;;;11.70;99.90;;;;;;5040893;28;20030;-70
2023/03/17 04:14:33;;;;;;;14.35;3.60;;;11.70;99.90;;;;;;5043809;28;20044;-69
2023/03/17 04:16:58;;;;;;;14.77;4.30;;;11.70;99.90;;;;;;5039462;28;20032;-70
2023/03/17 04:19:24;;;;;;;19.48;5.35;;;11.70;99.90;;;;;;5041336;28;20029;-70
2023/03/17 04:21:50;;;;;;;16.48;4.43;;;11.70;99.90;;;;;;5038937;28;20101;-70
2023/03/17 04:24:15;;;;;;;13.85;3.83;;;11.70;99.90;;;;;;5041003;28;20059;-69
2023/03/17 04:26:41;;;;;;;9.50;3.45;;;11.80;99.90;;;;;;5039878;28;20385;-69
2023/03/17 04:29:09;;;;;;;12.95;3.47;;;11.70;99.90;;;;;;5040366;28;20054;-70
2023/03/17 04:31:35;;;;;;;17.02;4.07;;;11.70;99.90;;;;;;5038362;28;20446;-70
2023/03/17 04:34:01;;;;;;;11.07;3.28;;;11.70;99.90;;;;;;5041272;28;20100;-70
2023/03/17 04:36:27;;;;;;;9.77;3.33;;;11.70;99.90;;;;;;5039068;28;20119;-71
2023/03/17 04:38:53;;;;;;;14.80;3.78;;;11.70;99.90;;;;;;5041062;28;20029;-69
2023/03/17 04:41:20;;;;;;;9.88;3.15;;;11.70;99.90;;;;;;5039589;28;20025;-70
2023/03/17 04:43:46;;;;;;;18.35;3.85;;;11.70;99.90;;;;;;5041503;28;20025;-70
2023/03/17 04:46:12;;;;;;;9.35;3.70;;;11.70;99.90;;;;;;5038711;28;20493;-70
2023/03/17 04:48:38;;;;;;;14.88;4.15;;;11.70;99.90;;;;;;5039177;28;20478;-70
2023/03/17 04:51:04;;;;;;;10.30;4.15;;;11.70;99.90;;;;;;5037115;28;20069;-70
2023/03/17 04:53:29;;;;;;;12.05;3.50;;;11.70;99.90;;;;;;5038422;28;20470;-70
2023/03/17 04:55:55;;;;;;;15.60;3.92;;;11.70;99.90;;;;;;5038511;28;20025;-70
2023/03/17 04:58:21;;;;;;;22.15;5.65;;;11.70;99.90;;;;;;5039985;28;20969;-70
2023/03/17 05:00:47;;;;;;;12.43;3.28;;;11.70;99.90;;;;;;5038799;28;20032;-70
2023/03/17 05:03:12;;;;;;;13.82;4.68;;;11.70;99.90;;;;;;5027770;28;20026;-69
2023/03/17 05:05:38;;;;;;;18.02;4.20;;;11.70;99.90;;;;;;5037510;28;20025;-69
2023/03/17 05:08:04;;;;;;;21.70;5.70;;;11.70;99.90;;;;;;5039899;28;20103;-69
2023/03/17 05:10:30;;;;;;;16.67;4.30;;;11.70;99.90;;;;;;5038392;28;20018;-70
2023/03/17 05:12:55;;;;;;;9.30;3.50;;;11.70;99.90;;;;;;5040357;28;20040;-69
2023/03/17 05:15:21;;;;;;;16.05;3.47;;;11.80;99.90;;;;;;5027477;28;20022;-69
2023/03/17 05:17:47;;;;;;;12.95;4.05;;;11.70;99.90;;;;;;5039359;28;20052;-70
2023/03/17 05:20:13;;;;;;;15.50;5.10;;;11.70;99.90;;;;;;5038992;28;20043;-69
2023/03/17 05:22:38;;;;;;;14.57;4.03;;;11.70;99.90;;;;;;5040534;28;20064;-70
2023/03/17 05:25:05;;;;;;;16.35;3.80;;;11.70;99.90;;;;;;5039206;28;20030;-70
2023/03/17 05:27:31;;;;;;;15.80;4.07;;;11.80;99.90;;;;;;5040128;28;20021;-69
2023/03/17 05:29:57;;;;;;;20.58;4.85;;;11.80;99.90;;;;;;5038774;28;20095;-70
2023/03/17 05:32:23;;;;;;;20.05;3.90;;;11.70;99.90;;;;;;5041519;28;20021;-70
2023/03/17 05:34:49;;;;;;;16.20;4.50;;;11.70;99.90;;;;;;5038293;28;20091;-70
2023/03/17 05:37:14;;;;;;;13.63;3.97;;;11.70;99.90;;;;;;5040683;28;20029;-70
2023/03/17 05:39:40;;;;;;;16.40;6.18;;;11.70;99.90;;;;;;5037998;28;20021;-70
2023/03/17 05:42:07;;;;;;;12.05;3.55;;;11.70;99.90;;;;;;5041194;28;20018;-70
2023/03/17 05:44:33;;;;;;;12.07;3.97;;;11.70;99.90;;;;;;5039641;28;20014;-70
2023/03/17 05:46:59;;;;;;;9.63;3.58;;;11.70;99.90;;;;;;5042728;28;20025;-69
2023/03/17 05:49:27;;;;;;;11.07;4.00;;;11.80;99.90;;;;;;5039204;28;20091;-70
2023/03/17 05:51:54;;;;;;;9.82;3.53;;;11.80;99.90;;;;;;5042988;28;20075;-70
2023/03/17 05:54:21;;;;;;;12.85;4.57;;;11.70;99.90;;;;;;5040170;28;20061;-70
2023/03/17 05:56:46;;;;;;;20.85;4.53;;;11.70;99.90;;;;;;5047363;28;20500;-70
2023/03/17 05:59:15;;;;;;;17.77;3.67;;;11.70;99.90;;;;;;5043969;28;20061;-69
2023/03/17 06:01:41;;;;;;;9.40;2.88;;;11.70;99.90;;;;;;5031062;28;20018;-70
2023/03/17 06:04:07;;;;;;;12.20;3.40;;;11.70;99.90;;;;;;5044381;28;20035;-70
2023/03/17 06:06:33;;;;;;;17.42;4.63;;;11.70;99.90;;;;;;5045460;28;20108;-70
2023/03/17 06:09:00;;;;;;;12.27;4.88;;;11.70;99.90;;;;;;5043415;28;20040;-70
2023/03/17 06:11:26;;;;;;;10.98;3.60;;;11.70;99.90;;;;;;5032686;28;20024;-70
2023/03/17 06:13:52;;;;;;;22.15;4.18;;;11.70;99.90;;;;;;5043751;28;20033;-69
2023/03/17 06:16:18;;;;;;;15.25;4.93;;;11.70;99.90;;;;;;5044905;28;20515;-70
2023/03/17 06:18:44;;;;;;;13.77;4.20;;;11.70;99.90;;;;;;5040892;28;20033;-70
2023/03/17 06:21:11;;;;;;;16.58;3.92;;;11.70;99.90;;;;;;5043166;28;20025;-69
2023/03/17 06:23:37;;;;;;;10.15;3.03;;;11.70;99.90;;;;;;5040623;28;20037;-69
2023/03/17 06:26:03;;;;;;;9.27;3.92;;;11.80;99.90;;;;;;5038512;28;20035;-70
2023/03/17 06:28:29;;;;;;;15.25;4.40;;;11.80;99.90;;;;;;5035420;28;20037;-69
2023/03/17 06:30:55;;;;;;;10.82;3.47;;;11.80;99.90;;;;;;5045096;28;20289;-70
2023/03/17 06:33:20;;;;;;;16.17;3.60;;;11.80;99.90;;;;;;5042489;28;20061;-70
2023/03/17 06:35:46;;;;;;;14.55;3.88;;;11.80;99.90;;;;;;5044926;28;20026;-70
2023/03/17 06:38:12;;;;;;;10.02;3.80;;;11.80;99.90;;;;;;5041819;28;20520;-71
2023/03/17 06:40:38;;;;;;;8.45;3.65;;;11.80;99.90;;;;;;5043949;28;20045;-70
2023/03/17 06:43:03;;;;;;;16.90;4.00;;;11.80;99.90;;;;;;5041556;28;20147;-70
2023/03/17 06:45:31;;;;;;;19.55;4.35;;;11.80;99.90;;;;;;5044261;28;20017;-70
2023/03/17 06:47:57;;;;;;;22.27;3.38;;;11.70;99.90;;;;;;5041805;28;20018;-70
2023/03/17 06:50:23;;;;;;;18.38;3.65;;;11.80;99.90;;;;;;5043147;28;20121;-70
2023/03/17 06:52:49;;;;;;;10.45;3.55;;;11.80;99.90;;;;;;5040000;28;20080;-70
2023/03/17 06:55:15;;;;;;;10.88;3.60;;;11.80;99.90;;;;;;5045094;28;20113;-70
2023/03/17 06:57:40;;;;;;;12.60;3.75;;;11.80;99.90;;;;;;5041957;28;20025;-69
2023/03/17 07:00:07;;;;;;;13.07;4.45;;;11.80;99.90;;;;;;5029094;28;20021;-69
2023/03/17 07:02:33;;;;;;;18.63;3.42;;;11.80;99.90;;;;;;5041599;28;20045;-69
2023/03/17 07:04:59;;;;;;;13.65;3.55;;;11.80;99.90;;;;;;5044689;28;20100;-70
2023/03/17 07:07:26;;;;;;;14.60;4.18;;;11.80;99.90;;;;;;5039672;28;20501;-69
2023/03/17 07:09:53;;;;;;;13.70;3.40;;;11.80;99.90;;;;;;5050486;28;20029;-69
2023/03/17 07:12:19;;;;;;;7.50;3.42;;;11.80;99.90;;;;;;5049871;28;20050;-69
2023/03/17 07:14:45;;;;;;;16.95;3.13;;;11.80;99.90;;;;;;5045325;28;20033;-69
2023/03/17 07:17:12;;;;;;;14.13;3.30;;;11.80;99.90;;;;;;5047254;28;20017;-69
2023/03/17 07:19:38;;;;;;;13.32;3.33;;;11.80;99.90;;;;;;5049971;28;20025;-69
2023/03/17 07:22:04;;;;;;;11.05;3.53;;;11.80;99.90;;;;;;5051212;28;20036;-69
2023/03/17 07:24:31;;;;;;;17.10;4.32;;;11.90;99.90;;;;;;5049722;28;20703;-69
2023/03/17 07:26:56;;;;;;;12.25;3.65;;;11.80;99.90;;;;;;5047974;28;20039;-68
2023/03/17 07:29:22;;;;;;;12.45;3.65;;;11.90;99.90;;;;;;5044788;28;20053;-70
2023/03/17 07:31:48;;;;;;;13.88;5.03;;;11.90;99.90;;;;;;5043907;28;20646;-69
2023/03/17 07:34:15;;;;;;;21.10;6.55;;;11.90;99.90;;;;;;5045657;28;20075;-69
2023/03/17 07:36:41;;;;;;;26.73;10.70;;;11.90;99.90;;;;;;5043590;28;20056;-69
2023/03/17 07:39:07;;;;;;;16.38;7.68;;;11.90;99.90;;;;;;5035077;28;20037;-69
2023/03/17 07:41:33;;;;;;;23.58;13.18;;;11.90;99.90;;;;;;5033924;28;20025;-69
2023/03/17 07:43:59;;;;;;;15.68;6.10;;;11.90;99.90;;;;;;5038571;28;20362;-69
2023/03/17 07:46:25;;;;;;;14.18;7.13;;;12.00;99.90;;;;;;5035882;28;20037;-69
2023/03/17 07:48:52;;;;;;;11.63;4.30;;;11.90;99.90;;;;;;5037773;28;20405;-69
2023/03/17 07:51:21;;;;;;;15.00;5.32;;;12.00;99.90;;;;;;5036622;28;20069;-68
2023/03/17 07:53:48;;;;;;;11.73;5.35;;;12.00;99.90;;;;;;5036107;28;20053;-69
2023/03/17 07:56:15;;;;;;;187.50;85.32;;;12.00;99.90;;;;;;5036672;28;20524;-69
2023/03/17 07:58:41;;;;;;;84.30;37.50;;;12.00;99.90;;;;;;5036552;28;20041;-69
2023/03/17 08:01:07;;;;;;;18.15;5.72;;;12.00;99.90;;;;;;5036685;28;20508;-69
2023/03/17 08:03:33;;;;;;;14.40;5.10;;;12.00;99.90;;;;;;5036737;28;20489;-69
2023/03/17 08:05:59;;;;;;;12.43;6.85;;;12.00;99.90;;;;;;5038788;28;20389;-69
2023/03/17 08:08:27;;;;;;;12.13;3.33;;;12.00;99.90;;;;;;5038936;28;20022;-69
2023/03/17 08:11:01;;;;;;;10.05;3.13;;;12.00;99.90;;;;;;5034033;28;20036;-68
2023/03/17 08:13:27;;;;;;;16.83;4.40;;;12.00;99.90;;;;;;5035371;28;20028;-69
2023/03/17 08:15:53;;;;;;;12.23;3.33;;;12.10;99.90;;;;;;5035295;28;20036;-69
2023/03/17 08:18:18;;;;;;;13.35;4.55;;;12.10;99.90;;;;;;5031561;28;20402;-69
2023/03/17 08:20:44;;;;;;;11.98;2.92;;;12.10;99.90;;;;;;5036030;28;20080;-68
2023/03/17 08:23:10;;;;;;;13.63;2.95;;;12.10;99.90;;;;;;5034677;28;20025;-69
2023/03/17 08:25:35;;;;;;;12.00;4.60;;;12.10;99.90;;;;;;5035050;28;20029;-68
2023/03/17 08:28:02;;;;;;;20.23;4.45;;;12.20;99.90;;;;;;5032587;28;20014;-69
2023/03/17 08:30:28;;;;;;;10.18;3.05;;;12.20;99.90;;;;;;5035491;28;20064;-69
2023/03/17 08:32:53;;;;;;;10.75;3.30;;;12.20;99.90;;;;;;5037087;28;20025;-69
2023/03/17 08:35:19;;;;;;;10.93;3.47;;;12.30;99.90;;;;;;5033997;28;20105;-69
2023/03/17 08:37:46;;;;;;;9.80;3.65;;;12.30;99.90;;;;;;5037847;28;20026;-69
2023/03/17 08:40:15;;;;;;;14.02;3.17;;;12.40;99.90;;;;;;5039008;28;20025;-69
2023/03/17 08:42:43;;;;;;;12.13;3.67;;;12.40;99.90;;;;;;5036288;28;20013;-69
2023/03/17 08:45:10;;;;;;;9.43;3.30;;;12.40;99.90;;;;;;5035756;28;20061;-69
2023/03/17 08:47:37;;;;;;;10.73;3.58;;;12.50;99.90;;;;;;5040156;28;20374;-68
2023/03/17 08:50:07;;;;;;;11.70;2.88;;;12.50;99.90;;;;;;5038352;28;20022;-68
2023/03/17 08:52:34;;;;;;;12.13;3.40;;;12.50;99.90;;;;;;5037085;28;20041;-69
2023/03/17 08:54:59;;;;;;;8.70;3.10;;;12.50;99.90;;;;;;5041394;28;20037;-69
2023/03/17 08:57:26;;;;;;;14.65;3.85;;;12.60;99.90;;;;;;5038814;28;20029;-68
2023/03/17 08:59:53;;;;;;;7.63;3.08;;;12.60;99.90;;;;;;5035299;28;20025;-69
2023/03/17 09:02:19;;;;;;;12.10;4.20;;;12.60;99.90;;;;;;5040760;28;20503;-69
2023/03/17 09:04:45;;;;;;;13.90;4.38;;;12.60;99.90;;;;;;5037694;28;20071;-69
2023/03/17 09:07:11;;;;;;;16.25;3.97;;;12.60;99.90;;;;;;5036956;28;20097;-69
2023/03/17 09:09:38;;;;;;;8.00;3.55;;;12.70;99.90;;;;;;5034765;28;20029;-69
2023/03/17 09:12:05;;;;;;;8.48;2.83;;;12.60;99.90;;;;;;5039240;28;20048;-69
2023/03/17 09:14:33;;;;;;;13.35;4.35;;;12.70;99.90;;;;;;5039087;28;20456;-69
2023/03/17 09:16:59;;;;;;;7.95;2.83;;;12.70;99.90;;;;;;5036051;28;20032;-68
2023/03/17 09:19:25;;;;;;;11.55;3.60;;;12.70;99.90;;;;;;5032726;28;20028;-69
2023/03/17 09:21:51;;;;;;;13.02;4.22;;;12.70;99.90;;;;;;5032811;28;20105;-69
2023/03/17 09:24:18;;;;;;;11.18;3.45;;;12.70;99.90;;;;;;5035615;28;20481;-69
2023/03/17 09:26:44;;;;;;;10.82;3.20;;;12.70;99.90;;;;;;5035521;28;20030;-68
2023/03/17 09:29:10;;;;;;;13.18;3.42;;;12.70;99.90;;;;;;5037932;28;20025;-68
2023/03/17 09:31:35;;;;;;;9.10;3.13;;;12.80;99.90;;;;;;5040291;28;20053;-68
2023/03/17 09:34:03;;;;;;;17.67;5.00;;;12.80;99.90;;;;;;5042344;28;20021;-69
2023/03/17 09:36:31;;;;;;;15.57;3.97;;;12.90;99.90;;;;;;5042752;28;20063;-69
2023/03/17 09:38:56;;;;;;;17.88;4.40;;;12.90;99.90;;;;;;5038047;28;20450;-69
2023/03/17 09:41:49;;;;;;;12.15;4.00;;;12.80;99.90;;;;;;5045180;28;20040;-69
2023/03/17 09:44:37;;;;;;;11.35;3.13;;;12.90;99.90;;;;;;5042119;28;20027;-69
2023/03/17 09:47:03;;;;;;;9.85;2.72;;;12.90;99.90;;;;;;5038784;28;20025;-69
2023/03/17 09:49:50;;;;;;;12.73;3.35;;;12.90;99.90;;;;;;5037715;28;20068;-69
2023/03/17 09:52:21;;;;;;;10.88;3.40;;;12.90;99.90;;;;;;5040123;28;20049;-69
2023/03/17 09:54:48;;;;;;;11.80;3.60;;;12.90;99.90;;;;;;5040968;28;20547;-69
2023/03/17 09:57:23;;;;;;;11.63;3.72;;;12.90;99.90;;;;;;5041463;28;20022;-69
2023/03/17 10:00:05;;;;;;;12.07;3.13;;;13.00;99.90;;;;;;5037847;28;20740;-69
2023/03/17 10:02:36;;;;;;;14.27;3.60;;;13.00;99.90;;;;;;5035971;28;20021;-69
2023/03/17 10:05:12;;;;;;;12.80;3.67;;;13.10;99.90;;;;;;5042129;28;20385;-69
2023/03/17 10:08:01;;;;;;;16.00;3.70;;;13.20;99.90;;;;;;5037954;28;20037;-69
2023/03/17 10:10:39;;;;;;;12.82;3.35;;;13.30;99.90;;;;;;5045466;28;20041;-69
2023/03/17 10:13:27;;;;;;;16.88;3.65;;;13.30;99.90;;;;;;5039834;28;20021;-69
2023/03/17 10:16:09;;;;;;;13.00;3.58;;;13.40;99.90;;;;;;5036969;28;20030;-69
2023/03/17 10:18:57;;;;;;;13.98;3.42;;;13.40;99.90;;;;;;5035971;28;20037;-69
2023/03/17 10:21:31;;;;;;;12.15;3.28;;;13.50;99.90;;;;;;5036551;28;20017;-69
2023/03/17 10:23:58;;;;;;;12.85;2.88;;;13.60;99.90;;;;;;5039941;28;20093;-69
2023/03/17 10:26:41;;;;;;;15.13;2.92;;;13.70;99.90;;;;;;5041226;28;20022;-69
2023/03/17 10:29:15;;;;;;;10.77;4.57;;;13.80;99.90;;;;;;5036823;28;20023;-70
2023/03/17 10:31:40;;;;;;;17.52;3.45;;;13.90;99.90;;;;;;5038975;28;20044;-69
2023/03/17 10:34:26;;;;;;;11.90;3.15;;;13.90;99.90;;;;;;5038030;28;20024;-69
2023/03/17 10:37:05;;;;;;;12.57;3.50;;;13.90;99.90;;;;;;5038845;28;20049;-69
2023/03/17 10:39:40;;;;;;;12.93;5.30;;;13.90;99.90;;;;;;5037352;28;20024;-69
2023/03/17 10:42:14;;;;;;;12.43;3.42;;;14.10;99.90;;;;;;5038631;28;20025;-69
2023/03/17 10:44:49;;;;;;;92.32;33.72;;;14.10;99.90;;;;;;5042474;28;20043;-69
2023/03/17 10:47:36;;;;;;;19.23;5.90;;;14.20;99.90;;;;;;5038206;28;20041;-70
2023/03/17 10:50:34;;;;;;;11.80;5.28;;;14.20;99.90;;;;;;5036965;28;20720;-69
2023/03/17 10:53:03;;;;;;;28.20;7.97;;;14.30;99.90;;;;;;5040848;28;20041;-69
2023/03/17 10:55:39;;;;;;;23.10;12.30;;;14.40;99.90;;;;;;5037302;28;20032;-69
2023/03/17 10:58:21;;;;;;;17.67;7.38;;;14.40;99.90;;;;;;5035950;28;20025;-69
2023/03/17 11:01:19;;;;;;;16.85;7.40;;;14.40;99.90;;;;;;5039673;28;20021;-69
2023/03/17 11:03:46;;;;;;;30.55;13.23;;;14.40;99.90;;;;;;5038560;28;20033;-70
2023/03/17 11:06:18;;;;;;;24.38;10.02;;;14.40;99.90;;;;;;5041609;28;20105;-69
2023/03/17 11:08:55;;;;;;;35.65;12.05;;;14.30;99.90;;;;;;5037118;28;20033;-69
2023/03/17 11:11:27;;;;;;;19.88;8.27;;;14.30;99.90;;;;;;5037720;28;20142;-69
2023/03/17 11:14:02;;;;;;;79.57;33.25;;;14.20;99.90;;;;;;5039554;28;20429;-69
2023/03/17 11:16:37;;;;;;;30.50;12.40;;;14.20;99.90;;;;;;5038046;28;20095;-70
2023/03/17 11:19:07;;;;;;;66.30;26.70;;;14.10;99.90;;;;;;5038709;28;20022;-69
2023/03/17 11:21:51;;;;;;;16.60;5.53;;;14.10;99.90;;;;;;5035752;28;20026;-69
2023/03/17 11:24:24;;;;;;;20.33;9.82;;;14.10;99.90;;;;;;5037526;28;20052;-69
2023/03/17 11:27:28;;;;;;;18.50;7.35;;;14.00;99.90;;;;;;5040656;28;20021;-69
2023/03/17 11:29:56;;;;;;;12.75;3.53;;;13.90;99.90;;;;;;5036210;28;20052;-70
2023/03/17 11:32:22;;;;;;;20.15;8.10;;;13.90;99.90;;;;;;5036544;28;20030;-69
2023/03/17 11:35:02;;;;;;;12.10;5.35;;;14.00;99.90;;;;;;5040471;28;20029;-69
2023/03/17 11:37:38;;;;;;;12.75;4.80;;;13.90;99.90;;;;;;5037630;28;20112;-69
2023/03/17 11:40:43;;;;;;;25.25;11.32;;;13.90;99.90;;;;;;5034534;28;20109;-69
2023/03/17 11:43:20;;;;;;;9.82;3.55;;;13.90;99.90;;;;;;5037533;28;20029;-70
2023/03/17 11:45:50;;;;;;;10.43;3.10;;;13.90;99.90;;;;;;5038861;28;20481;-69
2023/03/17 11:48:54;;;;;;;43.03;23.30;;;13.90;99.90;;;;;;5035325;28;20029;-70
2023/03/17 11:51:29;;;;;;;18.20;7.03;;;13.90;99.90;;;;;;5039406;28;20052;-69
2023/03/17 11:53:58;;;;;;;38.08;16.00;;;13.90;99.90;;;;;;5037777;28;20021;-70
2023/03/17 11:56:48;;;;;;;15.55;4.05;;;13.90;99.90;;;;;;5038454;28;20036;-71
2023/03/17 11:59:32;;;;;;;12.65;3.35;;;13.90;99.90;;;;;;5038289;28;20021;-69
2023/03/17 12:02:23;;;;;;;15.60;6.85;;;13.90;99.90;;;;;;5039374;28;20030;-70
2023/03/17 12:05:00;;;;;;;14.63;6.00;;;13.90;99.90;;;;;;5039306;28;20031;-69
2023/03/17 12:07:35;;;;;;;19.48;8.98;;;13.90;99.90;;;;;;5038553;28;20125;-69
2023/03/17 12:10:07;;;;;;;23.58;9.70;;;14.00;99.90;;;;;;5038126;28;20033;-69
2023/03/17 12:12:45;;;;;;;40.05;17.55;;;14.00;99.90;;;;;;5039341;28;20120;-70
2023/03/17 12:15:33;;;;;;;12.35;2.72;;;14.10;99.90;;;;;;5036209;28;20029;-68
2023/03/17 12:18:12;;;;;;;9.65;3.75;;;14.00;99.90;;;;;;5035130;28;20029;-69
2023/03/17 12:20:47;;;;;;;6.75;3.28;;;14.10;99.90;;;;;;5035715;28;20025;-69
2023/03/17 12:23:28;;;;;;;12.32;4.53;;;14.10;99.90;;;;;;5037999;28;20072;-68
2023/03/17 12:25:57;;;;;;;13.30;4.60;;;14.10;99.90;;;;;;5037196;28;20031;-68
2023/03/17 12:28:30;;;;;;;17.48;7.22;;;14.10;99.90;;;;;;5039104;28;20025;-69
2023/03/17 12:31:05;;;;;;;14.85;5.93;;;14.10;99.90;;;;;;5038943;28;20020;-68
2023/03/17 12:33:48;;;;;;;28.83;9.23;;;14.10;99.90;;;;;;5040055;28;20424;-68
2023/03/17 12:36:16;;;;;;;12.18;5.28;;;14.10;99.90;;;;;;5035154;28;20095;-69
2023/03/17 12:38:47;;;;;;;12.38;4.63;;;14.20;99.90;;;;;;5033171;28;20035;-69
2023/03/17 12:41:35;;;;;;;6.97;2.72;;;14.20;99.90;;;;;;5040246;28;20494;-68
2023/03/17 12:44:11;;;;;;;44.78;19.67;;;14.20;99.90;;;;;;5037391;28;20486;-69
2023/03/17 12:46:52;;;;;;;15.88;5.88;;;14.30;99.90;;;;;;5027640;28;20033;-69
2023/03/17 12:49:29;;;;;;;13.30;3.10;;;14.40;99.90;;;;;;5032719;28;20033;-71
2023/03/17 12:51:58;;;;;;;16.02;3.83;;;14.40;99.90;;;;;;5034828;28;20055;-69